• Join FlightAware (Why Join?)
  • Login
  • US Flag 
10:46PM EDT


 

Airport Tracker/Info


-or-


 

Live Flight TrackerFlight Track Log ✈ SWA1535 ✈ 24-Apr-2013 ✈ KMDW - KPVD

Flight Track Log - Related Links

Times and Time Zones

All times are in EDT time to prevent confusion due to time zone crossing. See the SWA1535 flight status page for this flight to view local times or setup timezone preferences in your user account.

Time Position Orientation Groundspeed Altitude Reporting Facility
EDT Latitude Longitude Course Direction KTS MPH feet Rate Location/Type
10:33AM 41.8000 -87.7667 66° East 147 169 2,100  Level Chicago TRACON
10:34AM 41.8167 -87.7167 66° East 219 252 4,000 2,160 Climbing Chicago TRACON
10:35AM 41.8167 -87.6167 90° East 257 296 6,500 2,460 Climbing Chicago TRACON
10:35AM 41.8194 -87.5867 83° East 241 277 7,800 3,300 Climbing Chicago Center
10:37AM 41.8117 -87.4750 95° East 292 336 11,300 2,760 Climbing Chicago Center
10:38AM 41.7967 -87.3558 100° East 319 367 13,600 2,640 Climbing Chicago Center
10:39AM 41.7811 -87.2236 99° East 353 406 16,800 2,640 Climbing Chicago Center
10:40AM 41.7639 -87.0822 99° East 378 435 19,100 2,700 Climbing Chicago Center
10:41AM 41.7636 -86.8975 90° East 412 474 22,500 2,520 Climbing Chicago Center
10:42AM 41.7656 -86.7353 89° East 437 503 24,400 1,920 Climbing Chicago Center
10:43AM 41.7847 -86.5792 81° East 470 541 26,500 2,700 Climbing Chicago Center
10:44AM 41.8117 -86.3728 80° East 467 537 30,000 2,160 Climbing Chicago Center
10:45AM 41.8386 -86.2053 78° East 462 532 31,000 540 Climbing Chicago Center
10:46AM 41.8839 -86.0311 71° East 488 562 31,200 660 Climbing Chicago Center
10:47AM 41.9297 -85.8431 72° East 522 601 32,400 1,500 Climbing Chicago Center
10:48AM 41.9756 -85.6519 72° East 532 612 34,300 1,740 Climbing Chicago Center
10:49AM 42.0208 -85.4478 73° East 520 598 36,100 1,260 Climbing Chicago Center
10:50AM 42.0247 -85.2714 88° East 517 595 37,000 420 Climbing Cleveland Center
10:51AM 42.0175 -85.0864 93° East 493 567 37,000  Level Cleveland Center
10:52AM 42.0081 -84.9011 94° East 499 574 37,000  Level Cleveland Center
10:53AM 42.0008 -84.6994 93° East 499 574 37,000  Level Cleveland Center
10:54AM 41.9864 -84.5169 96° East 499 574 37,000  Level Cleveland Center
10:55AM 41.9833 -84.3544 91° East 494 568 37,000  Level Cleveland Center
10:56AM 41.9669 -84.1525 96° East 494 568 37,000  Level Cleveland Center
10:57AM 41.9581 -83.9647 94° East 494 568 37,000  Level Cleveland Center
10:58AM 41.9486 -83.7828 94° East 494 568 37,000  Level Cleveland Center
10:59AM 41.9369 -83.6008 95° East 499 574 37,000  Level Cleveland Center
11:00AM 41.9333 -83.4136 91° East 499 574 37,000  Level Cleveland Center
11:01AM 41.9314 -83.2292 91° East 499 574 37,000  Level Cleveland Center
11:02AM 41.9311 -83.0589 90° East 504 580 37,000  Level Cleveland Center
11:03AM 41.9308 -82.8747 90° East 499 574 37,000  Level Cleveland Center
11:04AM 41.9281 -82.6847 91° East 499 574 37,000  Level Cleveland Center
11:05AM 41.9253 -82.4978 91° East 499 574 37,000  Level Cleveland Center
11:06AM 41.9242 -82.3078 90° East 499 574 37,000  Level Cleveland Center
11:07AM 41.9206 -82.1236 91° East 499 574 37,000  Level Cleveland Center
11:08AM 41.9186 -81.9336 91° East 499 574 37,000  Level Cleveland Center
11:09AM 41.9269 -81.7442 87° East 499 574 37,000  Level Cleveland Center
11:10AM 41.9497 -81.5294 82° East 512 589 37,000  Level Cleveland Center
11:11AM 41.9700 -81.3372 82° East 529 609 37,000  Level Cleveland Center
11:12AM 41.9919 -81.1419 81° East 524 603 37,000  Level Cleveland Center
11:13AM 42.0156 -80.9464 81° East 526 605 37,000  Level Cleveland Center
11:14AM 42.0328 -80.7508 83° East 526 605 37,000  Level Cleveland Center
11:15AM 42.0539 -80.5553 82° East 526 605 37,000  Level Cleveland Center
11:16AM 42.0744 -80.3594 82° East 521 600 37,000  Level Cleveland Center
11:17AM 42.0886 -80.1831 84° East 526 605 37,000  Level Cleveland Center
11:18AM 42.1086 -79.9842 82° East 526 605 37,000  Level Cleveland Center
11:19AM 42.1283 -79.7936 82° East 521 600 37,000  Level Cleveland Center
11:20AM 42.1475 -79.6003 82° East 521 600 37,000  Level Cleveland Center
11:21AM 42.1644 -79.4094 83° East 521 600 37,000  Level Cleveland Center
11:22AM 42.1792 -79.2214 84° East 521 600 37,000  Level Cleveland Center
11:23AM 42.1997 -79.0306 82° East 515 593 37,000  Level Cleveland Center
11:24AM 42.2281 -78.8222 80° East 515 593 37,000  Level Cleveland Center
11:25AM 42.2519 -78.6308 80° East 515 593 37,000  Level Cleveland Center
11:26AM 42.2758 -78.4447 80° East 510 587 37,000  Level Cleveland Center
11:27AM 42.2992 -78.2503 81° East 510 587 37,000  Level Cleveland Center
11:28AM 42.3222 -78.0614 81° East 510 587 37,000  Level Cleveland Center
11:29AM 42.3450 -77.8750 81° East 504 580 37,000  Level Cleveland Center
11:30AM 42.3636 -77.6942 82° East 499 574 37,000  Level Cleveland Center
11:32AM 42.4119 -77.2750 81° East 496 571 37,000  Level Boston Center
11:33AM 42.4342 -77.0939 81° East 491 565 37,000  Level Boston Center
11:34AM 42.4519 -76.9150 82° East 486 559 37,000  Level Boston Center
11:35AM 42.4711 -76.7389 82° East 479 551 37,000  Level Boston Center
11:36AM 42.4903 -76.5628 82° East 479 551 37,000  Level Boston Center
11:37AM 42.5092 -76.3836 82° East 479 551 37,000  Level Boston Center
11:38AM 42.4714 -76.2011 106° East 461 531 37,000  Level Boston Center
11:39AM 42.4031 -76.0592 123° Southeast 444 511 37,000 -180 Level Boston Center
11:40AM 42.3411 -75.9067 119° Southeast 450 518 36,700 -660 Descending Boston Center
11:41AM 42.3278 -75.7233 96° East 458 527 35,700 -960 Descending Boston Center
11:42AM 42.3267 -75.5406 90° East 470 541 34,800 -960 Descending Boston Center
11:43AM 42.3231 -75.3636 92° East 475 547 33,800 -1,020 Descending Boston Center
11:44AM 42.3233 -75.1864 90° East 475 547 32,800 -1,020 Descending Boston Center
11:45AM 42.3192 -75.0150 92° East 469 540 31,800 -1,020 Descending Boston Center
11:46AM 42.3167 -74.8436 91° East 464 534 30,800 -1,020 Descending Boston Center
11:47AM 42.3117 -74.6778 92° East 458 527 29,800 -900 Descending Boston Center
11:48AM 42.3086 -74.5092 91° East 447 514 29,000 -420 Descending Boston Center
11:49AM 42.3053 -74.3433 92° East 442 509 29,000  Level Boston Center
11:50AM 42.3058 -74.1778 90° East 442 509 29,000 -480 Level Boston Center
11:51AM 42.3331 -74.0186 77° East 437 503 28,100 -1,020 Descending Boston Center
11:52AM 42.3603 -73.8589 77° East 437 503 27,000 -1,020 Descending Boston Center
11:53AM 42.3872 -73.7050 77° East 431 496 26,100 -1,020 Descending Boston Center
11:54AM 42.3783 -73.5531 94° East 410 472 25,000 -1,080 Descending Boston Center
11:55AM 42.3400 -73.4147 111° Southeast 396 456 24,000 -1,020 Descending Boston Center
11:56AM 42.3036 -73.2711 109° East 391 450 23,000 -960 Descending Boston Center
11:57AM 42.2628 -73.1358 112° Southeast 391 450 22,100 -960 Descending Boston Center
11:58AM 42.1947 -73.0314 131° Southeast 375 432 21,100 -1,020 Descending Boston Center
11:59AM 42.1347 -72.9356 130° Southeast 375 432 20,100 -900 Descending Boston Center
12:00PM 42.0622 -72.8175 130° Southeast 375 432 19,300 -600 Descending Boston Center
12:01PM 42.0042 -72.7194 129° Southeast 375 432 19,000 -180 Descending Boston Center
12:02PM 41.9481 -72.6356 132° Southeast 367 422 19,000  Level Boston Center
12:02PM 41.9292 -72.5992 125° Southeast 375 432 19,000 -840 Level Boston Center
12:03PM 41.8647 -72.4931 129° Southeast 369 425 18,000 -1,500 Descending Boston Center
12:04PM 41.8128 -72.4094 130° Southeast 363 418 16,400 -1,920 Descending Boston Center
12:05PM 41.7439 -72.3039 131° Southeast 370 426 14,600 -1,740 Descending Boston Center
12:06PM 41.6811 -72.2011 129° Southeast 359 413 12,900 -1,740 Descending Boston Center
12:07PM 41.6225 -72.1069 130° Southeast 342 394 11,200 -1,200 Descending Boston Center
12:08PM 41.5639 -72.0128 130° Southeast 327 376 10,500 -1,080 Descending Boston Center
12:09PM 41.5217 -71.9106 119° Southeast 318 366 9,100 -1,440 Descending Boston Center
12:11PM 41.5644 -71.7186 73° East 287 330 6,200 -1,380 Descending Boston Center
12:12PM 41.6225 -71.6514 41° Northeast 279 321 5,100 -600 Descending Boston Center
12:13PM 41.6867 -71.5950 33° Northeast 265 305 5,100  Level Boston Center
12:14PM 41.7467 -71.5442 32° Northeast 265 305 5,100 -60 Level Boston Center
12:15PM 41.7983 -71.4989 33° Northeast 223 257 5,000 -480 Descending Boston Center
12:16PM 41.8103 -71.4403 75° East 181 208 4,200 -1,320 Descending Boston Center
12:17PM 41.7911 -71.3847 115° Southeast 175 201 2,400 -1,560 Descending Boston Center
12:18PM 41.7600 -71.3936 192° South 179 206 1,300 -1,260 Descending Boston Center